Terminal Aerodrome Forecast
Issued by NWS Lake Charles, LA

Home | Current Version | Previous Version | Text Only | Print | Product List | Glossary On
Versions: 1 2 3 4 5 6 7 8 9 10 11 12 13 14 15 16 17 18 19 20 21
000
FTUS44 KLCH 181139
TAFBPT
TAF
KBPT 181139Z 1812/1912 16009KT 6SM BR VCSH OVC005
     FM181400 15007KT 6SM BR VCSH OVC008
      TEMPO 1815/1817 4SM -SHRA
     FM181700 16013KT P6SM VCSH FEW008 BKN015
      TEMPO 1819/1823 4SM SHRA
     FM190100 15008KT 5SM BR VCSH OVC008
     FM190800 17007KT 3SM -SHRA OVC005=

USA.gov is the U.S. government's official web portal to all federal, state and local government web resources and services.